sensor_id;sensor_type;location;lat;lon;timestamp;P1;durP1;ratioP1;P2;durP2;ratioP2
12980;SDS011;6555;50.468;8.480;2022-10-19T00:00:02;0.60;;;0.60;;
12980;SDS011;6555;50.468;8.480;2022-10-19T00:05:07;0.80;;;0.80;;
12980;SDS011;6555;50.468;8.480;2022-10-19T00:10:10;0.73;;;0.73;;
12980;SDS011;6555;50.468;8.480;2022-10-19T00:15:13;1.00;;;0.80;;
12980;SDS011;6555;50.468;8.480;2022-10-19T00:20:18;0.67;;;0.67;;
12980;SDS011;6555;50.468;8.480;2022-10-19T00:25:21;0.73;;;0.73;;
12980;SDS011;6555;50.468;8.480;2022-10-19T00:30:23;0.60;;;0.60;;
12980;SDS011;6555;50.468;8.480;2022-10-19T00:35:28;0.97;;;0.70;;
12980;SDS011;6555;50.468;8.480;2022-10-19T00:40:35;0.77;;;0.77;;
12980;SDS011;6555;50.468;8.480;2022-10-19T00:45:39;1.07;;;0.70;;
12980;SDS011;6555;50.468;8.480;2022-10-19T00:50:43;0.50;;;0.50;;
12980;SDS011;6555;50.468;8.480;2022-10-19T00:55:47;0.73;;;0.73;;
12980;SDS011;6555;50.468;8.480;2022-10-19T01:00:50;0.60;;;0.60;;
12980;SDS011;6555;50.468;8.480;2022-10-19T01:05:55;0.80;;;0.77;;
12980;SDS011;6555;50.468;8.480;2022-10-19T01:11:01;0.60;;;0.60;;
12980;SDS011;6555;50.468;8.480;2022-10-19T01:16:17;0.70;;;0.70;;
12980;SDS011;6555;50.468;8.480;2022-10-19T01:21:29;0.90;;;0.90;;
12980;SDS011;6555;50.468;8.480;2022-10-19T01:26:45;0.90;;;0.90;;
12980;SDS011;6555;50.468;8.480;2022-10-19T01:32:10;1.00;;;1.00;;
12980;SDS011;6555;50.468;8.480;2022-10-19T01:37:19;1.00;;;0.80;;
12980;SDS011;6555;50.468;8.480;2022-10-19T01:42:32;0.80;;;0.80;;
12980;SDS011;6555;50.468;8.480;2022-10-19T01:47:41;0.83;;;0.83;;
12980;SDS011;6555;50.468;8.480;2022-10-19T01:52:50;0.83;;;0.77;;
12980;SDS011;6555;50.468;8.480;2022-10-19T01:57:55;0.90;;;0.90;;
12980;SDS011;6555;50.468;8.480;2022-10-19T02:03:04;0.93;;;0.90;;
12980;SDS011;6555;50.468;8.480;2022-10-19T02:08:10;0.90;;;0.90;;
12980;SDS011;6555;50.468;8.480;2022-10-19T02:13:14;0.93;;;0.83;;
12980;SDS011;6555;50.468;8.480;2022-10-19T02:18:21;0.70;;;0.70;;
12980;SDS011;6555;50.468;8.480;2022-10-19T02:23:32;1.33;;;1.17;;
12980;SDS011;6555;50.468;8.480;2022-10-19T02:28:35;1.10;;;1.00;;
12980;SDS011;6555;50.468;8.480;2022-10-19T02:33:40;0.90;;;0.90;;
12980;SDS011;6555;50.468;8.480;2022-10-19T02:38:43;1.20;;;1.10;;
12980;SDS011;6555;50.468;8.480;2022-10-19T02:43:47;0.70;;;0.70;;
12980;SDS011;6555;50.468;8.480;2022-10-19T02:48:53;0.73;;;0.73;;
12980;SDS011;6555;50.468;8.480;2022-10-19T02:53:58;0.80;;;0.80;;
12980;SDS011;6555;50.468;8.480;2022-10-19T02:59:05;0.70;;;0.70;;
12980;SDS011;6555;50.468;8.480;2022-10-19T03:04:10;0.70;;;0.70;;
12980;SDS011;6555;50.468;8.480;2022-10-19T03:09:13;0.57;;;0.57;;
12980;SDS011;6555;50.468;8.480;2022-10-19T03:14:16;0.57;;;0.57;;
12980;SDS011;6555;50.468;8.480;2022-10-19T03:19:20;0.67;;;0.67;;
12980;SDS011;6555;50.468;8.480;2022-10-19T03:24:24;0.70;;;0.70;;
12980;SDS011;6555;50.468;8.480;2022-10-19T03:29:27;0.60;;;0.60;;
12980;SDS011;6555;50.468;8.480;2022-10-19T03:34:31;0.40;;;0.40;;
12980;SDS011;6555;50.468;8.480;2022-10-19T03:39:34;0.60;;;0.60;;
12980;SDS011;6555;50.468;8.480;2022-10-19T03:44:37;0.20;;;0.20;;
12980;SDS011;6555;50.468;8.480;2022-10-19T03:49:42;0.60;;;0.60;;
12980;SDS011;6555;50.468;8.480;2022-10-19T03:54:45;0.50;;;0.50;;
12980;SDS011;6555;50.468;8.480;2022-10-19T03:59:51;0.47;;;0.47;;
12980;SDS011;6555;50.468;8.480;2022-10-19T04:04:56;1.00;;;0.67;;
12980;SDS011;6555;50.468;8.480;2022-10-19T04:09:59;0.53;;;0.53;;
12980;SDS011;6555;50.468;8.480;2022-10-19T04:15:02;0.57;;;0.57;;
12980;SDS011;6555;50.468;8.480;2022-10-19T04:20:07;0.80;;;0.80;;
12980;SDS011;6555;50.468;8.480;2022-10-19T04:25:11;0.67;;;0.67;;
12980;SDS011;6555;50.468;8.480;2022-10-19T04:30:14;0.87;;;0.87;;
12980;SDS011;6555;50.468;8.480;2022-10-19T04:35:19;0.60;;;0.60;;
12980;SDS011;6555;50.468;8.480;2022-10-19T04:40:22;1.60;;;0.60;;
12980;SDS011;6555;50.468;8.480;2022-10-19T04:45:25;0.70;;;0.70;;
12980;SDS011;6555;50.468;8.480;2022-10-19T04:50:29;0.50;;;0.50;;
12980;SDS011;6555;50.468;8.480;2022-10-19T04:55:32;0.97;;;0.50;;
12980;SDS011;6555;50.468;8.480;2022-10-19T05:00:36;0.50;;;0.50;;
12980;SDS011;6555;50.468;8.480;2022-10-19T05:05:41;0.20;;;0.20;;
12980;SDS011;6555;50.468;8.480;2022-10-19T05:10:44;1.13;;;0.20;;
12980;SDS011;6555;50.468;8.480;2022-10-19T05:15:54;2.50;;;0.30;;
12980;SDS011;6555;50.468;8.480;2022-10-19T05:21:02;0.57;;;0.57;;
12980;SDS011;6555;50.468;8.480;2022-10-19T05:26:07;0.40;;;0.40;;
12980;SDS011;6555;50.468;8.480;2022-10-19T05:31:13;0.60;;;0.60;;
12980;SDS011;6555;50.468;8.480;2022-10-19T05:36:19;0.30;;;0.30;;
12980;SDS011;6555;50.468;8.480;2022-10-19T05:41:25;0.33;;;0.33;;
12980;SDS011;6555;50.468;8.480;2022-10-19T05:46:29;0.60;;;0.60;;
12980;SDS011;6555;50.468;8.480;2022-10-19T05:51:34;0.33;;;0.33;;
12980;SDS011;6555;50.468;8.480;2022-10-19T05:56:38;0.40;;;0.40;;
12980;SDS011;6555;50.468;8.480;2022-10-19T06:01:41;0.60;;;0.60;;
12980;SDS011;6555;50.468;8.480;2022-10-19T06:06:46;0.57;;;0.57;;
12980;SDS011;6555;50.468;8.480;2022-10-19T06:11:49;0.90;;;0.90;;
12980;SDS011;6555;50.468;8.480;2022-10-19T06:16:52;0.97;;;0.93;;
12980;SDS011;6555;50.468;8.480;2022-10-19T06:21:57;1.40;;;1.20;;
12980;SDS011;6555;50.468;8.480;2022-10-19T06:27:00;2.20;;;1.57;;
12980;SDS011;6555;50.468;8.480;2022-10-19T06:32:03;2.00;;;1.80;;
12980;SDS011;6555;50.468;8.480;2022-10-19T06:37:07;1.90;;;1.80;;
12980;SDS011;6555;50.468;8.480;2022-10-19T06:42:10;2.03;;;1.83;;
12980;SDS011;6555;50.468;8.480;2022-10-19T06:47:14;2.73;;;1.70;;
12980;SDS011;6555;50.468;8.480;2022-10-19T06:52:18;1.80;;;1.50;;
12980;SDS011;6555;50.468;8.480;2022-10-19T06:57:21;2.37;;;1.83;;
12980;SDS011;6555;50.468;8.480;2022-10-19T07:02:24;1.80;;;1.70;;
12980;SDS011;6555;50.468;8.480;2022-10-19T07:07:29;2.47;;;1.97;;
12980;SDS011;6555;50.468;8.480;2022-10-19T07:12:32;2.37;;;1.70;;
12980;SDS011;6555;50.468;8.480;2022-10-19T07:17:36;2.40;;;1.47;;
12980;SDS011;6555;50.468;8.480;2022-10-19T07:22:40;1.50;;;1.40;;
12980;SDS011;6555;50.468;8.480;2022-10-19T07:27:43;1.50;;;1.40;;
12980;SDS011;6555;50.468;8.480;2022-10-19T07:32:46;1.87;;;1.67;;
12980;SDS011;6555;50.468;8.480;2022-10-19T07:37:51;2.17;;;1.40;;
12980;SDS011;6555;50.468;8.480;2022-10-19T07:42:54;2.30;;;1.80;;
12980;SDS011;6555;50.468;8.480;2022-10-19T07:47:57;1.80;;;1.47;;
12980;SDS011;6555;50.468;8.480;2022-10-19T07:53:02;1.97;;;1.77;;
12980;SDS011;6555;50.468;8.480;2022-10-19T07:58:05;2.40;;;1.80;;
12980;SDS011;6555;50.468;8.480;2022-10-19T08:03:08;2.07;;;1.80;;
12980;SDS011;6555;50.468;8.480;2022-10-19T08:08:33;2.37;;;1.67;;
12980;SDS011;6555;50.468;8.480;2022-10-19T08:13:37;3.07;;;1.77;;
12980;SDS011;6555;50.468;8.480;2022-10-19T08:18:40;1.73;;;1.47;;
12980;SDS011;6555;50.468;8.480;2022-10-19T08:23:45;2.00;;;1.73;;
12980;SDS011;6555;50.468;8.480;2022-10-19T08:28:48;2.10;;;1.90;;
12980;SDS011;6555;50.468;8.480;2022-10-19T08:33:51;2.20;;;2.00;;
12980;SDS011;6555;50.468;8.480;2022-10-19T08:38:56;4.23;;;1.73;;
12980;SDS011;6555;50.468;8.480;2022-10-19T08:44:13;1.90;;;1.50;;
12980;SDS011;6555;50.468;8.480;2022-10-19T08:49:30;1.87;;;1.77;;
12980;SDS011;6555;50.468;8.480;2022-10-19T08:54:36;3.30;;;1.80;;
12980;SDS011;6555;50.468;8.480;2022-10-19T08:59:45;1.70;;;1.60;;
12980;SDS011;6555;50.468;8.480;2022-10-19T09:04:54;2.23;;;2.03;;
12980;SDS011;6555;50.468;8.480;2022-10-19T09:10:07;2.47;;;1.70;;
12980;SDS011;6555;50.468;8.480;2022-10-19T09:15:21;2.60;;;1.80;;
12980;SDS011;6555;50.468;8.480;2022-10-19T09:20:28;2.53;;;2.07;;
12980;SDS011;6555;50.468;8.480;2022-10-19T09:25:37;2.60;;;1.90;;
12980;SDS011;6555;50.468;8.480;2022-10-19T09:30:41;2.67;;;1.83;;
12980;SDS011;6555;50.468;8.480;2022-10-19T09:35:45;3.47;;;2.27;;
12980;SDS011;6555;50.468;8.480;2022-10-19T09:40:51;3.00;;;2.40;;
12980;SDS011;6555;50.468;8.480;2022-10-19T09:45:54;2.90;;;2.20;;
12980;SDS011;6555;50.468;8.480;2022-10-19T09:51:01;3.10;;;2.17;;
12980;SDS011;6555;50.468;8.480;2022-10-19T09:56:17;1.93;;;1.73;;
12980;SDS011;6555;50.468;8.480;2022-10-19T10:01:29;2.50;;;2.20;;
12980;SDS011;6555;50.468;8.480;2022-10-19T10:06:43;3.20;;;2.10;;
12980;SDS011;6555;50.468;8.480;2022-10-19T10:11:52;3.07;;;2.37;;
12980;SDS011;6555;50.468;8.480;2022-10-19T10:17:00;2.63;;;1.97;;
12980;SDS011;6555;50.468;8.480;2022-10-19T10:22:04;3.60;;;2.23;;
12980;SDS011;6555;50.468;8.480;2022-10-19T10:27:31;2.07;;;1.87;;
12980;SDS011;6555;50.468;8.480;2022-10-19T10:32:36;3.87;;;2.17;;
12980;SDS011;6555;50.468;8.480;2022-10-19T10:37:49;2.70;;;1.90;;
12980;SDS011;6555;50.468;8.480;2022-10-19T10:42:55;3.30;;;1.83;;
12980;SDS011;6555;50.468;8.480;2022-10-19T10:48:09;2.93;;;1.90;;
12980;SDS011;6555;50.468;8.480;2022-10-19T10:53:33;4.27;;;2.10;;
12980;SDS011;6555;50.468;8.480;2022-10-19T10:58:40;1.90;;;1.80;;
12980;SDS011;6555;50.468;8.480;2022-10-19T11:03:49;2.20;;;2.00;;
12980;SDS011;6555;50.468;8.480;2022-10-19T11:08:58;4.40;;;1.83;;
12980;SDS011;6555;50.468;8.480;2022-10-19T11:14:28;3.13;;;2.00;;
12980;SDS011;6555;50.468;8.480;2022-10-19T11:19:38;2.00;;;1.87;;
12980;SDS011;6555;50.468;8.480;2022-10-19T11:24:50;3.10;;;2.10;;
12980;SDS011;6555;50.468;8.480;2022-10-19T11:30:09;2.80;;;1.73;;
12980;SDS011;6555;50.468;8.480;2022-10-19T11:35:19;2.37;;;2.10;;
12980;SDS011;6555;50.468;8.480;2022-10-19T11:40:44;1.60;;;1.50;;
12980;SDS011;6555;50.468;8.480;2022-10-19T11:46:18;1.63;;;1.53;;
12980;SDS011;6555;50.468;8.480;2022-10-19T11:51:28;3.03;;;1.53;;
12980;SDS011;6555;50.468;8.480;2022-10-19T11:56:39;3.67;;;1.87;;
12980;SDS011;6555;50.468;8.480;2022-10-19T12:02:10;1.53;;;1.43;;
12980;SDS011;6555;50.468;8.480;2022-10-19T12:07:27;1.37;;;1.27;;
12980;SDS011;6555;50.468;8.480;2022-10-19T12:12:41;1.50;;;1.40;;
12980;SDS011;6555;50.468;8.480;2022-10-19T12:17:48;1.70;;;1.20;;
12980;SDS011;6555;50.468;8.480;2022-10-19T12:22:54;1.10;;;1.00;;
12980;SDS011;6555;50.468;8.480;2022-10-19T12:27:58;2.20;;;1.40;;
12980;SDS011;6555;50.468;8.480;2022-10-19T12:33:04;2.13;;;1.20;;
12980;SDS011;6555;50.468;8.480;2022-10-19T12:38:17;2.07;;;1.10;;
12980;SDS011;6555;50.468;8.480;2022-10-19T12:43:25;2.30;;;1.20;;
12980;SDS011;6555;50.468;8.480;2022-10-19T12:48:35;2.43;;;1.30;;
12980;SDS011;6555;50.468;8.480;2022-10-19T12:53:40;2.90;;;1.30;;
12980;SDS011;6555;50.468;8.480;2022-10-19T12:58:51;4.47;;;1.70;;
12980;SDS011;6555;50.468;8.480;2022-10-19T13:04:08;1.57;;;1.20;;
12980;SDS011;6555;50.468;8.480;2022-10-19T13:09:20;3.90;;;1.30;;
12980;SDS011;6555;50.468;8.480;2022-10-19T13:14:41;2.40;;;1.10;;
12980;SDS011;6555;50.468;8.480;2022-10-19T13:19:47;1.27;;;1.10;;
12980;SDS011;6555;50.468;8.480;2022-10-19T13:36:10;3.83;;;1.00;;
12980;SDS011;6555;50.468;8.480;2022-10-19T13:41:15;1.73;;;1.10;;
12980;SDS011;6555;50.468;8.480;2022-10-19T13:46:21;2.83;;;1.07;;
12980;SDS011;6555;50.468;8.480;2022-10-19T13:51:39;1.20;;;1.00;;
12980;SDS011;6555;50.468;8.480;2022-10-19T14:08:02;1.97;;;1.00;;
12980;SDS011;6555;50.468;8.480;2022-10-19T14:13:12;1.50;;;1.00;;
12980;SDS011;6555;50.468;8.480;2022-10-19T14:18:21;1.00;;;0.90;;
12980;SDS011;6555;50.468;8.480;2022-10-19T14:23:27;2.70;;;1.20;;
12980;SDS011;6555;50.468;8.480;2022-10-19T14:28:32;0.73;;;0.73;;
12980;SDS011;6555;50.468;8.480;2022-10-19T14:33:37;1.70;;;1.00;;
12980;SDS011;6555;50.468;8.480;2022-10-19T14:38:43;1.33;;;0.70;;
12980;SDS011;6555;50.468;8.480;2022-10-19T14:43:46;1.40;;;0.83;;
12980;SDS011;6555;50.468;8.480;2022-10-19T14:48:49;1.00;;;0.70;;
12980;SDS011;6555;50.468;8.480;2022-10-19T14:53:55;1.67;;;0.90;;
12980;SDS011;6555;50.468;8.480;2022-10-19T14:59:01;0.80;;;0.80;;
12980;SDS011;6555;50.468;8.480;2022-10-19T15:04:06;1.17;;;0.90;;
12980;SDS011;6555;50.468;8.480;2022-10-19T15:09:16;2.00;;;0.80;;
12980;SDS011;6555;50.468;8.480;2022-10-19T15:14:37;1.23;;;0.70;;
12980;SDS011;6555;50.468;8.480;2022-10-19T15:19:41;0.60;;;0.60;;
12980;SDS011;6555;50.468;8.480;2022-10-19T15:24:59;1.87;;;1.07;;
12980;SDS011;6555;50.468;8.480;2022-10-19T15:30:04;1.67;;;0.90;;
12980;SDS011;6555;50.468;8.480;2022-10-19T15:35:24;0.97;;;0.70;;
12980;SDS011;6555;50.468;8.480;2022-10-19T15:40:32;1.97;;;1.13;;
12980;SDS011;6555;50.468;8.480;2022-10-19T15:45:36;1.00;;;0.70;;
12980;SDS011;6555;50.468;8.480;2022-10-19T15:50:41;1.43;;;0.70;;
12980;SDS011;6555;50.468;8.480;2022-10-19T15:55:47;4.97;;;2.33;;
12980;SDS011;6555;50.468;8.480;2022-10-19T16:00:50;1.77;;;1.50;;
12980;SDS011;6555;50.468;8.480;2022-10-19T16:05:53;1.77;;;1.10;;
12980;SDS011;6555;50.468;8.480;2022-10-19T16:10:58;1.43;;;1.00;;
12980;SDS011;6555;50.468;8.480;2022-10-19T16:16:02;2.20;;;0.80;;
12980;SDS011;6555;50.468;8.480;2022-10-19T16:21:11;2.93;;;1.77;;
12980;SDS011;6555;50.468;8.480;2022-10-19T16:26:16;2.30;;;1.40;;
12980;SDS011;6555;50.468;8.480;2022-10-19T16:31:20;1.40;;;1.10;;
12980;SDS011;6555;50.468;8.480;2022-10-19T16:36:23;1.03;;;0.90;;
12980;SDS011;6555;50.468;8.480;2022-10-19T16:41:28;1.10;;;0.90;;
12980;SDS011;6555;50.468;8.480;2022-10-19T16:46:31;1.13;;;0.97;;
12980;SDS011;6555;50.468;8.480;2022-10-19T16:51:35;3.40;;;1.07;;
12980;SDS011;6555;50.468;8.480;2022-10-19T16:56:42;1.40;;;1.00;;
12980;SDS011;6555;50.468;8.480;2022-10-19T17:01:47;1.10;;;0.87;;
12980;SDS011;6555;50.468;8.480;2022-10-19T17:06:50;2.53;;;1.10;;
12980;SDS011;6555;50.468;8.480;2022-10-19T17:11:54;1.27;;;0.70;;
12980;SDS011;6555;50.468;8.480;2022-10-19T17:16:58;0.97;;;0.70;;
12980;SDS011;6555;50.468;8.480;2022-10-19T17:22:01;1.50;;;1.00;;
12980;SDS011;6555;50.468;8.480;2022-10-19T17:27:07;0.70;;;0.70;;
12980;SDS011;6555;50.468;8.480;2022-10-19T17:32:10;3.80;;;1.03;;
12980;SDS011;6555;50.468;8.480;2022-10-19T17:37:13;0.90;;;0.90;;
12980;SDS011;6555;50.468;8.480;2022-10-19T17:42:17;2.47;;;0.97;;
12980;SDS011;6555;50.468;8.480;2022-10-19T17:47:20;1.60;;;1.10;;
12980;SDS011;6555;50.468;8.480;2022-10-19T17:52:24;0.90;;;0.90;;
12980;SDS011;6555;50.468;8.480;2022-10-19T17:57:28;1.00;;;1.00;;
12980;SDS011;6555;50.468;8.480;2022-10-19T18:02:32;1.37;;;0.90;;
12980;SDS011;6555;50.468;8.480;2022-10-19T18:07:36;0.93;;;0.93;;
12980;SDS011;6555;50.468;8.480;2022-10-19T18:12:40;1.57;;;1.03;;
12980;SDS011;6555;50.468;8.480;2022-10-19T18:17:43;1.60;;;1.10;;
12980;SDS011;6555;50.468;8.480;2022-10-19T18:22:46;1.03;;;0.97;;
12980;SDS011;6555;50.468;8.480;2022-10-19T18:27:51;1.60;;;1.20;;
12980;SDS011;6555;50.468;8.480;2022-10-19T18:32:54;2.47;;;1.10;;
12980;SDS011;6555;50.468;8.480;2022-10-19T18:37:57;1.00;;;0.90;;
12980;SDS011;6555;50.468;8.480;2022-10-19T18:43:01;1.83;;;1.20;;
12980;SDS011;6555;50.468;8.480;2022-10-19T18:48:05;1.23;;;1.00;;
12980;SDS011;6555;50.468;8.480;2022-10-19T18:53:08;1.40;;;1.13;;
12980;SDS011;6555;50.468;8.480;2022-10-19T18:58:12;1.23;;;1.13;;
12980;SDS011;6555;50.468;8.480;2022-10-19T19:03:15;1.67;;;1.30;;
12980;SDS011;6555;50.468;8.480;2022-10-19T19:08:20;1.50;;;1.40;;
12980;SDS011;6555;50.468;8.480;2022-10-19T19:13:25;1.83;;;1.47;;
12980;SDS011;6555;50.468;8.480;2022-10-19T19:18:28;2.10;;;1.30;;
12980;SDS011;6555;50.468;8.480;2022-10-19T19:23:32;1.30;;;1.20;;
12980;SDS011;6555;50.468;8.480;2022-10-19T19:28:36;1.00;;;1.00;;
12980;SDS011;6555;50.468;8.480;2022-10-19T19:33:43;1.30;;;1.20;;
12980;SDS011;6555;50.468;8.480;2022-10-19T19:38:46;1.00;;;0.90;;
12980;SDS011;6555;50.468;8.480;2022-10-19T19:43:53;3.13;;;1.30;;
12980;SDS011;6555;50.468;8.480;2022-10-19T19:48:58;1.53;;;0.80;;
12980;SDS011;6555;50.468;8.480;2022-10-19T19:54:02;2.47;;;1.27;;
12980;SDS011;6555;50.468;8.480;2022-10-19T19:59:08;2.63;;;1.10;;
12980;SDS011;6555;50.468;8.480;2022-10-19T20:04:12;2.30;;;1.00;;
12980;SDS011;6555;50.468;8.480;2022-10-19T20:09:15;1.53;;;1.00;;
12980;SDS011;6555;50.468;8.480;2022-10-19T20:14:19;0.90;;;0.80;;
12980;SDS011;6555;50.468;8.480;2022-10-19T20:19:22;1.20;;;0.90;;
12980;SDS011;6555;50.468;8.480;2022-10-19T20:24:25;1.83;;;1.00;;
12980;SDS011;6555;50.468;8.480;2022-10-19T20:29:29;1.23;;;1.03;;
12980;SDS011;6555;50.468;8.480;2022-10-19T20:34:33;2.27;;;0.90;;
12980;SDS011;6555;50.468;8.480;2022-10-19T20:39:36;1.43;;;1.03;;
12980;SDS011;6555;50.468;8.480;2022-10-19T20:44:40;2.40;;;1.07;;
12980;SDS011;6555;50.468;8.480;2022-10-19T20:49:43;1.63;;;1.23;;
12980;SDS011;6555;50.468;8.480;2022-10-19T20:54:46;1.83;;;1.30;;
12980;SDS011;6555;50.468;8.480;2022-10-19T20:59:51;1.20;;;1.10;;
12980;SDS011;6555;50.468;8.480;2022-10-19T21:04:54;1.30;;;1.20;;
12980;SDS011;6555;50.468;8.480;2022-10-19T21:09:57;3.33;;;1.30;;
12980;SDS011;6555;50.468;8.480;2022-10-19T21:15:02;2.90;;;1.43;;
12980;SDS011;6555;50.468;8.480;2022-10-19T21:20:05;1.27;;;1.17;;
12980;SDS011;6555;50.468;8.480;2022-10-19T21:25:09;1.70;;;1.50;;
12980;SDS011;6555;50.468;8.480;2022-10-19T21:30:13;3.63;;;1.13;;
12980;SDS011;6555;50.468;8.480;2022-10-19T21:35:16;1.20;;;1.10;;
12980;SDS011;6555;50.468;8.480;2022-10-19T21:40:19;1.10;;;1.10;;
12980;SDS011;6555;50.468;8.480;2022-10-19T21:45:24;2.23;;;1.30;;
12980;SDS011;6555;50.468;8.480;2022-10-19T21:50:31;1.50;;;1.40;;
12980;SDS011;6555;50.468;8.480;2022-10-19T21:55:34;3.33;;;1.60;;
12980;SDS011;6555;50.468;8.480;2022-10-19T22:00:39;1.50;;;1.27;;
12980;SDS011;6555;50.468;8.480;2022-10-19T22:05:47;2.33;;;1.50;;
12980;SDS011;6555;50.468;8.480;2022-10-19T22:10:51;1.47;;;1.20;;
12980;SDS011;6555;50.468;8.480;2022-10-19T22:15:55;1.13;;;1.07;;
12980;SDS011;6555;50.468;8.480;2022-10-19T22:21:03;1.57;;;1.30;;
12980;SDS011;6555;50.468;8.480;2022-10-19T22:26:12;2.07;;;1.27;;
12980;SDS011;6555;50.468;8.480;2022-10-19T22:31:17;1.37;;;1.27;;
12980;SDS011;6555;50.468;8.480;2022-10-19T22:36:20;3.27;;;1.43;;
12980;SDS011;6555;50.468;8.480;2022-10-19T22:41:23;1.40;;;1.30;;
12980;SDS011;6555;50.468;8.480;2022-10-19T22:46:27;2.20;;;1.60;;
12980;SDS011;6555;50.468;8.480;2022-10-19T22:51:30;1.47;;;1.37;;
12980;SDS011;6555;50.468;8.480;2022-10-19T22:56:33;1.50;;;1.40;;
12980;SDS011;6555;50.468;8.480;2022-10-19T23:01:38;1.90;;;1.23;;
12980;SDS011;6555;50.468;8.480;2022-10-19T23:06:41;2.80;;;1.27;;
12980;SDS011;6555;50.468;8.480;2022-10-19T23:11:44;1.40;;;1.17;;
12980;SDS011;6555;50.468;8.480;2022-10-19T23:16:48;2.13;;;1.27;;
12980;SDS011;6555;50.468;8.480;2022-10-19T23:21:51;2.47;;;1.40;;
12980;SDS011;6555;50.468;8.480;2022-10-19T23:26:54;1.60;;;1.50;;
12980;SDS011;6555;50.468;8.480;2022-10-19T23:31:58;1.50;;;1.37;;
12980;SDS011;6555;50.468;8.480;2022-10-19T23:37:01;2.03;;;1.57;;
12980;SDS011;6555;50.468;8.480;2022-10-19T23:42:04;1.90;;;1.80;;
12980;SDS011;6555;50.468;8.480;2022-10-19T23:47:08;1.40;;;1.30;;
12980;SDS011;6555;50.468;8.480;2022-10-19T23:52:11;1.60;;;1.50;;
12980;SDS011;6555;50.468;8.480;2022-10-19T23:57:14;3.67;;;1.50;;
